createdAt,value
2022-08-28T00:01:57.157Z,25.45
2022-08-28T00:04:23.751Z,25.45
2022-08-28T00:06:50.110Z,25.45
2022-08-28T00:09:16.447Z,25.42
2022-08-28T00:11:42.753Z,25.42
2022-08-28T00:14:09.031Z,25.42
2022-08-28T00:16:35.422Z,25.43
2022-08-28T00:19:01.707Z,25.44
2022-08-28T00:21:28.061Z,25.42
2022-08-28T00:23:57.246Z,25.45
2022-08-28T00:26:23.604Z,25.43
2022-08-28T00:28:51.148Z,25.43
2022-08-28T00:31:17.751Z,25.42
2022-08-28T00:33:44.089Z,25.42
2022-08-28T00:36:10.405Z,25.43
2022-08-28T00:38:36.718Z,25.42
2022-08-28T00:41:03.766Z,25.40
2022-08-28T00:43:30.453Z,25.38
2022-08-28T00:45:56.816Z,25.40
2022-08-28T00:48:23.129Z,25.40
2022-08-28T00:50:49.506Z,25.39
2022-08-28T00:53:15.833Z,25.39
2022-08-28T00:55:42.277Z,25.39
2022-08-28T00:58:08.608Z,25.39
2022-08-28T01:00:34.953Z,25.37
2022-08-28T01:03:01.397Z,25.39
2022-08-28T01:05:28.037Z,25.42
2022-08-28T01:07:54.595Z,25.40
2022-08-28T01:10:20.945Z,25.43
2022-08-28T01:12:48.371Z,25.39
2022-08-28T01:15:15.005Z,25.37
2022-08-28T01:17:43.105Z,25.38
2022-08-28T01:20:09.626Z,25.37
2022-08-28T01:22:35.969Z,25.36
2022-08-28T01:25:02.337Z,25.37
2022-08-28T01:27:28.961Z,25.39
2022-08-28T01:29:55.456Z,25.35
2022-08-28T01:32:22.107Z,25.36
2022-08-28T01:34:48.443Z,25.35
2022-08-28T01:37:14.762Z,25.35
2022-08-28T01:39:41.280Z,25.35
2022-08-28T01:42:07.644Z,25.35
2022-08-28T01:44:33.932Z,25.34
2022-08-28T01:47:00.354Z,25.33
2022-08-28T01:49:26.869Z,25.32
2022-08-28T01:51:54.722Z,25.33
2022-08-28T01:54:21.246Z,25.32
2022-08-28T01:56:47.650Z,25.32
2022-08-28T01:59:13.939Z,25.32
2022-08-28T02:01:40.442Z,25.34
2022-08-28T02:04:06.920Z,25.32
2022-08-28T02:06:33.246Z,25.32
2022-08-28T02:08:59.621Z,25.30
2022-08-28T02:11:26.068Z,25.32
2022-08-28T02:13:54.332Z,25.31
2022-08-28T02:16:22.661Z,25.29
2022-08-28T02:18:49.098Z,25.31
2022-08-28T02:21:15.566Z,25.32
2022-08-28T02:23:41.890Z,25.31
2022-08-28T02:26:08.187Z,25.32
2022-08-28T02:28:34.536Z,25.32
2022-08-28T02:31:01.116Z,25.29
2022-08-28T02:33:27.554Z,25.27
2022-08-28T02:35:53.913Z,25.31
2022-08-28T02:38:20.237Z,25.33
2022-08-28T02:40:46.629Z,25.33
2022-08-28T02:43:13.212Z,25.29
2022-08-28T02:45:39.750Z,25.31
2022-08-28T02:48:11.977Z,25.31
2022-08-28T02:50:43.264Z,25.35
2022-08-28T02:53:09.908Z,25.35
2022-08-28T02:55:36.254Z,25.32
2022-08-28T02:58:02.589Z,25.29
2022-08-28T03:00:28.893Z,25.33
2022-08-28T03:02:55.369Z,25.30
2022-08-28T03:05:21.830Z,25.28
2022-08-28T03:07:48.130Z,25.32
2022-08-28T03:10:14.605Z,25.30
2022-08-28T03:12:40.974Z,25.28
2022-08-28T03:15:07.487Z,25.34
2022-08-28T03:17:33.944Z,25.29
2022-08-28T03:20:00.726Z,25.34
2022-08-28T03:22:27.202Z,25.30
2022-08-28T03:24:53.745Z,25.34
2022-08-28T03:27:20.138Z,25.27
2022-08-28T03:29:46.493Z,25.28
2022-08-28T03:32:12.841Z,25.31
2022-08-28T03:34:39.236Z,25.32
2022-08-28T03:37:05.672Z,25.29
2022-08-28T03:39:32.151Z,25.29
2022-08-28T03:41:58.560Z,25.27
2022-08-28T03:44:25.019Z,25.30
2022-08-28T03:46:51.565Z,25.27
2022-08-28T03:49:18.221Z,25.24
2022-08-28T03:51:46.079Z,25.29
2022-08-28T03:54:12.621Z,25.31
2022-08-28T03:56:38.976Z,25.31
2022-08-28T03:59:05.482Z,25.28
2022-08-28T04:01:32.021Z,25.27
2022-08-28T04:03:58.616Z,25.25
2022-08-28T04:06:24.953Z,25.25
2022-08-28T04:08:51.453Z,25.29
2022-08-28T04:11:18.306Z,25.29
2022-08-28T04:13:44.885Z,25.25
2022-08-28T04:16:11.636Z,25.25
2022-08-28T04:18:41.236Z,25.25
2022-08-28T04:21:07.673Z,25.24
2022-08-28T04:23:35.031Z,25.28
2022-08-28T04:26:01.365Z,25.29
2022-08-28T04:28:27.805Z,25.31
2022-08-28T04:30:54.165Z,25.26
2022-08-28T04:33:20.505Z,25.28
2022-08-28T04:35:46.947Z,25.26
2022-08-28T04:38:13.474Z,25.29
2022-08-28T04:40:41.022Z,25.28
2022-08-28T04:43:07.439Z,25.31
2022-08-28T04:45:33.822Z,25.25
2022-08-28T04:48:00.286Z,25.24
2022-08-28T04:50:31.710Z,25.28
2022-08-28T04:52:58.013Z,25.25
2022-08-28T04:55:24.417Z,25.27
2022-08-28T04:58:10.731Z,25.24
2022-08-28T05:00:37.135Z,25.27
2022-08-28T05:03:03.537Z,25.28
2022-08-28T05:05:29.937Z,25.25
2022-08-28T05:07:56.319Z,25.29
2022-08-28T05:10:23.240Z,25.25
2022-08-28T05:12:49.624Z,25.27
2022-08-28T05:15:16.009Z,25.28
2022-08-28T05:17:42.330Z,25.25
2022-08-28T05:20:08.692Z,25.21
2022-08-28T05:22:35.017Z,25.18
2022-08-28T05:25:01.368Z,25.19
2022-08-28T05:27:28.008Z,25.19
2022-08-28T05:29:57.347Z,25.17
2022-08-28T05:32:27.602Z,25.21
2022-08-28T05:34:54.454Z,25.23
2022-08-28T05:37:20.806Z,25.22
2022-08-28T05:39:47.198Z,25.19
2022-08-28T05:42:13.824Z,25.17
2022-08-28T05:44:40.245Z,25.21
2022-08-28T05:47:06.510Z,25.21
2022-08-28T05:49:32.962Z,25.20
2022-08-28T05:51:59.272Z,25.17
2022-08-28T05:54:25.653Z,25.16
2022-08-28T05:56:51.956Z,25.14
2022-08-28T05:59:18.386Z,25.19
2022-08-28T06:01:44.766Z,25.18
2022-08-28T06:04:11.228Z,25.14
2022-08-28T06:06:37.606Z,25.15
2022-08-28T06:09:03.904Z,25.12
2022-08-28T06:11:30.989Z,25.16
2022-08-28T06:13:57.751Z,25.15
2022-08-28T06:16:24.366Z,25.16
2022-08-28T06:18:51.154Z,25.15
2022-08-28T06:21:17.522Z,25.15
2022-08-28T06:23:44.034Z,25.10
2022-08-28T06:26:11.104Z,25.15
2022-08-28T06:28:37.581Z,25.15
2022-08-28T06:31:23.288Z,25.11
2022-08-28T06:33:50.361Z,25.14
2022-08-28T06:36:16.882Z,25.11
2022-08-28T06:38:43.400Z,25.14
2022-08-28T06:41:09.694Z,25.15
2022-08-28T06:43:36.082Z,25.06
2022-08-28T06:46:02.501Z,25.12
2022-08-28T06:48:28.984Z,25.12
2022-08-28T06:50:55.381Z,25.12
2022-08-28T06:53:21.725Z,25.08
2022-08-28T06:55:48.241Z,25.14
2022-08-28T06:58:14.671Z,25.12
2022-08-28T07:00:41.153Z,25.11
2022-08-28T07:03:07.672Z,25.05
2022-08-28T07:05:34.806Z,24.88
2022-08-28T07:08:01.150Z,24.85
2022-08-28T07:10:27.725Z,24.76
2022-08-28T07:12:54.110Z,24.74
2022-08-28T07:15:20.464Z,24.73
2022-08-28T07:17:46.838Z,24.71
2022-08-28T07:20:13.437Z,24.74
2022-08-28T07:22:39.804Z,24.73
2022-08-28T07:25:06.181Z,24.67
2022-08-28T07:27:32.574Z,24.66
2022-08-28T07:29:58.942Z,24.71
2022-08-28T07:32:25.529Z,24.72
2022-08-28T07:34:52.006Z,24.70
2022-08-28T07:37:18.752Z,24.63
2022-08-28T07:39:45.273Z,24.61
2022-08-28T07:42:11.822Z,24.61
2022-08-28T07:44:38.221Z,24.59
2022-08-28T07:47:04.546Z,24.56
2022-08-28T07:49:30.926Z,24.57
2022-08-28T07:51:57.263Z,24.55
2022-08-28T07:54:23.960Z,24.52
2022-08-28T07:56:50.244Z,24.51
2022-08-28T07:59:16.989Z,24.47
2022-08-28T08:01:43.834Z,24.50
2022-08-28T08:04:10.524Z,24.48
2022-08-28T08:06:36.844Z,24.47
2022-08-28T08:09:03.217Z,24.43
2022-08-28T08:11:31.066Z,24.45
2022-08-28T08:13:58.980Z,24.46
2022-08-28T08:16:25.547Z,24.45
2022-08-28T08:18:52.039Z,24.42
2022-08-28T08:21:18.337Z,24.41
2022-08-28T08:23:44.700Z,24.44
2022-08-28T08:26:11.150Z,24.43
2022-08-28T08:28:37.569Z,24.43
2022-08-28T08:31:04.140Z,24.39
2022-08-28T08:33:30.478Z,24.46
2022-08-28T08:35:56.817Z,24.41
2022-08-28T08:38:23.327Z,24.37
2022-08-28T08:40:49.732Z,24.44
2022-08-28T08:43:16.190Z,24.33
2022-08-28T08:45:42.538Z,24.36
2022-08-28T08:48:09.595Z,24.37
2022-08-28T08:50:37.249Z,24.35
2022-08-28T08:53:03.552Z,24.35
2022-08-28T08:55:29.878Z,24.33
2022-08-28T08:57:56.381Z,24.31
2022-08-28T09:00:22.917Z,24.29
2022-08-28T09:02:50.174Z,24.34
2022-08-28T09:05:16.734Z,24.35
2022-08-28T09:07:43.212Z,24.31
2022-08-28T09:10:09.633Z,24.28
2022-08-28T09:12:35.962Z,24.28
2022-08-28T09:15:02.748Z,24.23
2022-08-28T09:17:29.156Z,24.26
2022-08-28T09:19:55.703Z,24.26
2022-08-28T09:22:22.096Z,24.23
2022-08-28T09:24:48.469Z,24.24
2022-08-28T09:27:16.942Z,24.19
2022-08-28T09:29:43.343Z,24.26
2022-08-28T09:32:09.734Z,24.25
2022-08-28T09:34:38.946Z,24.21
2022-08-28T09:37:05.834Z,24.26
2022-08-28T09:39:32.206Z,24.19
2022-08-28T09:41:58.664Z,24.28
2022-08-28T09:44:25.197Z,24.25
2022-08-28T09:46:52.490Z,24.28
2022-08-28T09:49:18.913Z,24.27
2022-08-28T09:51:45.470Z,24.30
2022-08-28T09:54:11.881Z,24.29
2022-08-28T09:56:38.262Z,24.32
2022-08-28T09:59:04.665Z,24.33
2022-08-28T10:01:31.096Z,24.31
2022-08-28T10:03:57.496Z,24.30
2022-08-28T10:06:24.933Z,24.32
2022-08-28T10:08:53.132Z,24.34
2022-08-28T10:11:19.741Z,24.39
2022-08-28T10:13:46.122Z,24.29
2022-08-28T10:16:12.532Z,24.31
2022-08-28T10:18:38.968Z,24.33
2022-08-28T10:21:05.647Z,24.36
2022-08-28T10:23:32.218Z,24.41
2022-08-28T10:25:58.662Z,24.42
2022-08-28T10:28:25.057Z,24.43
2022-08-28T10:30:51.419Z,24.38
2022-08-28T10:33:17.953Z,24.38
2022-08-28T10:35:44.277Z,24.37
2022-08-28T10:38:11.104Z,24.34
2022-08-28T10:40:37.702Z,24.35
2022-08-28T10:43:04.438Z,24.32
2022-08-28T10:45:31.327Z,24.48
2022-08-28T10:47:57.638Z,24.38
2022-08-28T10:50:23.983Z,24.38
2022-08-28T10:52:50.359Z,24.43
2022-08-28T10:55:16.665Z,24.39
2022-08-28T10:57:43.015Z,24.41
2022-08-28T11:00:09.369Z,24.39
2022-08-28T11:02:35.829Z,24.41
2022-08-28T11:05:02.268Z,24.49
2022-08-28T11:07:29.246Z,24.42
2022-08-28T11:09:55.557Z,24.54
2022-08-28T11:12:21.931Z,24.59
2022-08-28T11:14:48.907Z,24.55
2022-08-28T11:17:15.362Z,24.59
2022-08-28T11:19:44.501Z,24.63
2022-08-28T11:22:11.797Z,24.64
2022-08-28T11:24:38.292Z,24.59
2022-08-28T11:27:07.903Z,24.65
2022-08-28T11:29:34.217Z,24.63
2022-08-28T11:32:00.525Z,24.67
2022-08-28T11:34:26.874Z,24.66
2022-08-28T11:36:53.404Z,24.62
2022-08-28T11:39:19.717Z,24.63
2022-08-28T11:41:46.093Z,24.70
2022-08-28T11:44:12.437Z,24.72
2022-08-28T11:46:38.923Z,24.69
2022-08-28T11:49:05.487Z,24.70
2022-08-28T11:51:32.138Z,24.68
2022-08-28T11:53:58.469Z,24.65
2022-08-28T11:56:28.287Z,24.64
2022-08-28T11:58:58.114Z,24.65
2022-08-28T12:01:24.507Z,24.72
2022-08-28T12:03:50.966Z,24.70
2022-08-28T12:06:17.392Z,24.65
2022-08-28T12:08:43.823Z,24.65
2022-08-28T12:11:10.238Z,24.56
2022-08-28T12:13:36.562Z,24.67
2022-08-28T12:16:03.092Z,24.61
2022-08-28T12:18:29.814Z,24.59
2022-08-28T12:21:00.186Z,24.52
2022-08-28T12:23:27.060Z,24.53
2022-08-28T12:25:53.510Z,24.53
2022-08-28T12:28:26.645Z,24.51
2022-08-28T12:30:53.329Z,24.55
2022-08-28T12:33:19.809Z,24.45
2022-08-28T12:35:46.281Z,24.53
2022-08-28T12:38:12.730Z,24.49
2022-08-28T12:40:39.361Z,24.47
2022-08-28T12:43:05.697Z,24.39
2022-08-28T12:45:32.077Z,24.35
2022-08-28T12:47:58.482Z,24.48
2022-08-28T12:50:24.914Z,24.53
2022-08-28T12:52:51.469Z,24.57
2022-08-28T12:55:23.771Z,24.63
2022-08-28T12:57:50.878Z,24.68
2022-08-28T13:00:17.334Z,24.70
2022-08-28T13:02:46.503Z,24.71
2022-08-28T13:05:16.494Z,24.71
2022-08-28T13:07:42.894Z,24.71
2022-08-28T13:10:09.550Z,24.68
2022-08-28T13:12:54.487Z,24.57
2022-08-28T13:15:24.431Z,24.62
2022-08-28T13:17:50.995Z,24.65
2022-08-28T13:20:17.439Z,24.69
2022-08-28T13:22:50.538Z,24.75
2022-08-28T13:25:17.593Z,24.70
2022-08-28T13:27:43.957Z,24.71
2022-08-28T13:30:10.330Z,24.76
2022-08-28T13:32:36.716Z,24.76
2022-08-28T13:35:03.254Z,24.78
2022-08-28T13:37:29.634Z,24.80
2022-08-28T13:39:56.230Z,24.81
2022-08-28T13:42:22.746Z,24.82
2022-08-28T13:44:49.120Z,24.82
2022-08-28T13:47:15.566Z,24.80
2022-08-28T13:49:41.882Z,24.83
2022-08-28T13:52:08.303Z,24.84
2022-08-28T13:54:35.889Z,24.77
2022-08-28T13:57:02.373Z,24.76
2022-08-28T13:59:30.039Z,24.70
2022-08-28T14:01:57.506Z,24.65
2022-08-28T14:04:24.149Z,24.70
2022-08-28T14:06:50.813Z,24.69
2022-08-28T14:09:17.766Z,24.72
2022-08-28T14:11:44.439Z,24.74
2022-08-28T14:14:10.823Z,24.76
2022-08-28T14:16:39.764Z,24.79
2022-08-28T14:19:07.279Z,24.81
2022-08-28T14:21:33.665Z,24.82
2022-08-28T14:24:00.014Z,24.83
2022-08-28T14:26:26.396Z,24.84
2022-08-28T14:28:52.819Z,24.85
2022-08-28T14:31:19.396Z,24.86
2022-08-28T14:33:45.777Z,24.86
2022-08-28T14:36:12.210Z,24.87
2022-08-28T14:38:38.557Z,24.89
2022-08-28T14:41:04.970Z,24.88
2022-08-28T14:43:31.460Z,24.89
2022-08-28T14:45:57.756Z,24.91
2022-08-28T14:48:24.258Z,24.90
2022-08-28T14:50:50.806Z,24.92
2022-08-28T14:53:17.201Z,24.93
2022-08-28T14:55:43.765Z,24.94
2022-08-28T14:58:10.354Z,24.94
2022-08-28T15:00:36.735Z,24.94
2022-08-28T15:03:03.411Z,24.95
2022-08-28T15:05:29.742Z,24.95
2022-08-28T15:07:56.098Z,24.96
2022-08-28T15:10:22.717Z,24.97
2022-08-28T15:12:49.210Z,24.97
2022-08-28T15:15:16.086Z,24.97
2022-08-28T15:17:42.481Z,24.99
2022-08-28T15:20:08.914Z,24.99
2022-08-28T15:22:35.405Z,24.99
2022-08-28T15:25:01.705Z,25.00
2022-08-28T15:27:28.106Z,25.01
2022-08-28T15:29:54.642Z,25.01
2022-08-28T15:32:20.972Z,25.02
2022-08-28T15:34:47.350Z,25.01
2022-08-28T15:37:13.714Z,25.03
2022-08-28T15:39:40.022Z,25.03
2022-08-28T15:42:06.397Z,25.03
2022-08-28T15:44:32.982Z,25.03
2022-08-28T15:46:59.424Z,25.04
2022-08-28T15:49:26.144Z,25.04
2022-08-28T15:51:52.614Z,25.04
2022-08-28T15:54:19.130Z,25.05
2022-08-28T15:56:45.582Z,25.04
2022-08-28T15:59:14.301Z,25.05
2022-08-28T16:01:41.073Z,25.04
2022-08-28T16:04:07.715Z,25.06
2022-08-28T16:06:34.185Z,25.04
2022-08-28T16:09:00.479Z,25.06
2022-08-28T16:11:26.889Z,25.06
2022-08-28T16:13:54.233Z,25.06
2022-08-28T16:16:20.866Z,25.06
2022-08-28T16:18:47.370Z,25.05
2022-08-28T16:21:13.949Z,25.07
2022-08-28T16:23:42.145Z,25.07
2022-08-28T16:26:08.484Z,25.07
2022-08-28T16:28:34.865Z,25.06
2022-08-28T16:31:04.559Z,25.07
2022-08-28T16:33:33.749Z,25.08
2022-08-28T16:36:00.157Z,25.06
2022-08-28T16:38:26.566Z,25.06
2022-08-28T16:40:52.953Z,25.05
2022-08-28T16:43:19.326Z,25.06
2022-08-28T16:45:45.772Z,25.07
2022-08-28T16:48:12.329Z,25.07
2022-08-28T16:50:39.084Z,25.07
2022-08-28T16:53:07.193Z,25.06
2022-08-28T16:55:34.417Z,25.06
2022-08-28T16:58:00.737Z,25.06
2022-08-28T17:00:27.622Z,25.06
2022-08-28T17:02:54.278Z,25.05
2022-08-28T17:05:20.781Z,25.06
2022-08-28T17:07:47.224Z,25.05
2022-08-28T17:10:13.625Z,25.05
2022-08-28T17:12:40.043Z,25.06
2022-08-28T17:15:06.406Z,25.04
2022-08-28T17:17:32.805Z,25.04
2022-08-28T17:19:59.182Z,25.03
2022-08-28T17:22:27.300Z,25.04
2022-08-28T17:24:54.073Z,25.04
2022-08-28T17:27:22.290Z,25.04
2022-08-28T17:29:49.267Z,25.02
2022-08-28T17:32:15.668Z,25.03
2022-08-28T17:34:42.019Z,25.03
2022-08-28T17:37:08.408Z,25.02
2022-08-28T17:39:34.748Z,25.03
2022-08-28T17:42:01.094Z,25.01
2022-08-28T17:44:29.109Z,25.01
2022-08-28T17:46:55.663Z,25.02
2022-08-28T17:49:22.151Z,25.02
2022-08-28T17:51:48.501Z,25.02
2022-08-28T17:54:14.841Z,25.00
2022-08-28T17:56:41.224Z,25.01
2022-08-28T17:59:07.801Z,25.02
2022-08-28T18:01:34.259Z,25.01
2022-08-28T18:04:00.652Z,25.02
2022-08-28T18:06:27.236Z,25.00
2022-08-28T18:08:53.894Z,25.01
2022-08-28T18:11:20.301Z,25.00
2022-08-28T18:13:46.950Z,24.99
2022-08-28T18:16:13.539Z,25.01
2022-08-28T18:18:40.103Z,24.99
2022-08-28T18:21:06.664Z,24.99
2022-08-28T18:23:33.278Z,24.99
2022-08-28T18:25:59.655Z,24.99
2022-08-28T18:28:26.293Z,24.99
2022-08-28T18:30:52.755Z,24.97
2022-08-28T18:33:19.381Z,24.99
2022-08-28T18:35:49.409Z,24.97
2022-08-28T18:38:15.925Z,24.98
2022-08-28T18:40:42.512Z,24.97
2022-08-28T18:43:08.885Z,24.96
2022-08-28T18:45:35.186Z,24.95
2022-08-28T18:48:01.543Z,24.97
2022-08-28T18:50:27.924Z,24.97
2022-08-28T18:52:54.455Z,24.97
2022-08-28T18:55:21.237Z,24.96
2022-08-28T18:57:50.013Z,24.95
2022-08-28T19:00:18.252Z,24.95
2022-08-28T19:02:44.781Z,24.95
2022-08-28T19:05:11.698Z,24.95
2022-08-28T19:07:38.089Z,24.94
2022-08-28T19:10:04.549Z,24.93
2022-08-28T19:12:30.875Z,24.93
2022-08-28T19:14:57.237Z,24.94
2022-08-28T19:17:23.914Z,24.94
2022-08-28T19:19:50.416Z,24.94
2022-08-28T19:22:16.941Z,24.93
2022-08-28T19:24:43.248Z,24.93
2022-08-28T19:27:10.011Z,24.91
2022-08-28T19:29:36.319Z,24.92
2022-08-28T19:32:02.713Z,24.91
2022-08-28T19:34:29.037Z,24.91
2022-08-28T19:36:55.610Z,24.92
2022-08-28T19:39:23.599Z,24.91
2022-08-28T19:41:50.222Z,24.91
2022-08-28T19:44:16.536Z,24.91
2022-08-28T19:46:43.297Z,24.90
2022-08-28T19:49:09.685Z,24.91
2022-08-28T19:51:36.117Z,24.91
2022-08-28T19:54:02.817Z,24.89
2022-08-28T19:56:29.281Z,24.90
2022-08-28T19:58:55.665Z,24.89
2022-08-28T20:01:22.078Z,24.89
2022-08-28T20:03:48.522Z,24.89
2022-08-28T20:06:15.048Z,24.89
2022-08-28T20:08:41.516Z,24.88
2022-08-28T20:11:08.046Z,24.88
2022-08-28T20:13:34.577Z,24.89
2022-08-28T20:16:01.010Z,24.86
2022-08-28T20:18:27.605Z,24.88
2022-08-28T20:20:54.205Z,24.88
2022-08-28T20:23:20.593Z,24.86
2022-08-28T20:25:46.913Z,24.86
2022-08-28T20:28:13.470Z,24.86
2022-08-28T20:30:40.328Z,24.86
2022-08-28T20:33:06.826Z,24.84
2022-08-28T20:35:33.261Z,24.84
2022-08-28T20:37:59.601Z,24.85
2022-08-28T20:40:26.058Z,24.84
2022-08-28T20:42:54.045Z,24.85
2022-08-28T20:45:20.422Z,24.85
2022-08-28T20:47:46.817Z,24.85
2022-08-28T20:50:13.220Z,24.84
2022-08-28T20:52:39.594Z,24.82
2022-08-28T20:55:06.146Z,24.82
2022-08-28T20:57:32.505Z,24.85
2022-08-28T21:00:02.244Z,24.83
2022-08-28T21:02:31.705Z,24.82
2022-08-28T21:04:58.001Z,24.80
2022-08-28T21:07:24.473Z,24.80
2022-08-28T21:10:04.626Z,24.79
2022-08-28T21:12:33.018Z,24.81
2022-08-28T21:14:59.392Z,24.82
2022-08-28T21:17:29.471Z,24.81
2022-08-28T21:19:56.854Z,24.81
2022-08-28T21:22:23.369Z,24.80
2022-08-28T21:24:50.775Z,24.79
2022-08-28T21:27:18.502Z,24.80
2022-08-28T21:29:45.084Z,24.79
2022-08-28T21:32:11.721Z,24.78
2022-08-28T21:34:38.042Z,24.80
2022-08-28T21:37:04.358Z,24.79
2022-08-28T21:39:30.933Z,24.79
2022-08-28T21:41:57.316Z,24.76
2022-08-28T21:44:23.629Z,24.77
2022-08-28T21:46:50.232Z,24.77
2022-08-28T21:49:16.677Z,24.76
2022-08-28T21:51:43.219Z,24.75
2022-08-28T21:54:09.580Z,24.78
2022-08-28T21:56:36.109Z,24.78
2022-08-28T21:59:02.450Z,24.75
2022-08-28T22:01:28.920Z,24.78
2022-08-28T22:03:55.402Z,24.77
2022-08-28T22:06:21.773Z,24.76
2022-08-28T22:08:48.530Z,24.74
2022-08-28T22:11:14.929Z,24.77
2022-08-28T22:13:43.589Z,24.75
2022-08-28T22:16:10.017Z,24.76
2022-08-28T22:18:36.603Z,24.74
2022-08-28T22:21:02.929Z,24.73
2022-08-28T22:23:29.298Z,24.75
2022-08-28T22:25:55.656Z,24.76
2022-08-28T22:28:23.286Z,24.75
2022-08-28T22:30:49.688Z,24.74
2022-08-28T22:33:16.375Z,24.74
2022-08-28T22:35:42.850Z,24.72
2022-08-28T22:38:09.738Z,24.71
2022-08-28T22:40:36.175Z,24.71
2022-08-28T22:43:02.593Z,24.73
2022-08-28T22:45:28.994Z,24.71
2022-08-28T22:47:55.398Z,24.71
2022-08-28T22:50:21.697Z,24.71
2022-08-28T22:52:48.001Z,24.72
2022-08-28T22:55:14.318Z,24.71
2022-08-28T22:57:40.761Z,24.70
2022-08-28T23:00:07.296Z,24.70
2022-08-28T23:02:33.829Z,24.72
2022-08-28T23:05:00.212Z,24.71
2022-08-28T23:07:26.726Z,24.70
2022-08-28T23:09:53.049Z,24.66
2022-08-28T23:12:19.458Z,24.67
2022-08-28T23:14:48.528Z,24.68
2022-08-28T23:17:15.253Z,24.69
2022-08-28T23:19:43.293Z,24.71
2022-08-28T23:22:13.889Z,24.69
2022-08-28T23:24:40.214Z,24.65
2022-08-28T23:27:32.369Z,24.67
2022-08-28T23:29:53.190Z,24.68
2022-08-28T23:32:20.088Z,24.68
2022-08-28T23:34:46.506Z,24.66
2022-08-28T23:37:13.005Z,24.67
2022-08-28T23:39:39.410Z,24.67
2022-08-28T23:42:05.780Z,24.66
2022-08-28T23:44:32.309Z,24.66
2022-08-28T23:46:58.790Z,24.65
2022-08-28T23:49:27.027Z,24.65
2022-08-28T23:51:53.554Z,24.68
2022-08-28T23:54:19.912Z,24.64
2022-08-28T23:56:46.590Z,24.65
2022-08-28T23:59:12.949Z,24.65
